Ouaquaga, NY (13826)

10:34 AM EDT on October 30, 2014 (GMT -0400)
Rattlesnake Mountain, West Windsor | Change Station
CLOSE
Current Station
Personal Weather Station
Location: Windsor, NY
Elevation: 1461 ft
Nearby Weather Stations

Elev 1461 ft 42.10 °N, 75.76 °W | Updated 7 seconds ago

Mostly Cloudy
Mostly Cloudy
43.1 °F
Feels Like 43 °F
N
0.0
Wind Variable Wind from WSW
Gusts 0.0 mph

Today
High -- | Low -- °F
--% Chance of Precip.
Yesterday
High -- | Low -- °F
Precip. -- in
7:32 AM 5:58 PM
Waxing Crescent, 44% visible
Pressure 30.00 in
Visibility 10.0 miles
Clouds Scattered Clouds 1800 ft
Mostly Cloudy 2800 ft
Windchill 43 °F
Dew Point 35 °F
Humidity 74%
Rainfall 0.00 in
Snow Depth Not available.
UV 1 out of 12
Pollen .80 out of 12
Air Quality Not available.
Flu Activity Not available.
SPECI KBGM 301405Z 27009KT 10SM SCT018 BKN028 06/02 A3000 RMK AO2 T00610017

More Conditions Fewer Conditions

Pressure 30.00 in
Visibility 10.0 miles
Clouds Scattered Clouds 1800 ft
Mostly Cloudy 2800 ft
Windchill 43 °F
Dew Point 35 °F
Humidity 74%
Rainfall 0.00 in
Snow Depth Not available.
UV 1 out of 12
Pollen .80 out of 12
Air Quality Not available.
Flu Activity Not available.
SPECI KBGM 301405Z 27009KT 10SM SCT018 BKN028 06/02 A3000 RMK AO2 T00610017

More Conditions Fewer Conditions

10-Day Weather Forecast

Almanac

Astronomy

Oct. 30, 2014 Rise Set
Actual Time
Civil Twilight
Nautical Twilight
Astronomical Twilight
Moon
Length of Visible Light
Length of Day
Tomorrow will be .
, % of the Moon is Illuminated

Today's Extremes

State Highs State Lows

Community

WunderPhotos

Upload Photos

1,766,373 photos uploaded!

WunderBlogs® & News

Nearby

Air Quality

  Air Quality AQ Index Pollutant
Not available.

Snow Depth

Station Depth Elevation

Earthquake Activity

City Distance Mag. Time & Date
Minimum magnitude displayed is 2.5.

Coastal Water Temperatures

Place Temperature

Nearby Weather Stations